ěÝzenÝ letovÚho provozu ╚eskÚ republiky
Letiste: LKTB Aktualizace: 01.03.2021 18:30:24  UTC
 METAR LKTB 01.03. 18:30 ...
METAR LKTB 011830Z 05005KT 9999 SCT013 02/00 Q1034 NOSIG RMK REG QNH 1030=
 TAF LKTB 01.03. 17:00 ...
TAF LKTB 011700Z 0118/0300 03006KT CAVOK      PROB40 TEMPO 0118/0200 5000 BR BKN009      BECMG 0200/0202 VRB02KT 3000 BR OVC005      TEMPO 0202/0209 1300 BR OVC003      PROB30 TEMPO 0202/0208 0700 FZFG VV001      BECMG 0209/0211 CAVOK      BECMG 0223/0300 5000 BR NSC=